Time;durP1;ratioP1;P1;durP2;ratioP2;P2;SDS_P1;SDS_P2;PMS_P1;PMS_P2;Temp;Humidity;BMP_temperature;BMP_pressure;BME280_temperature;BME280_humidity;BME280_pressure;Samples;Min_cycle;Max_cycle;Signal;HPM_P1;HPM_P2
2023/08/05 00:02:47;;;;;;;2.00;1.58;;;;;;;18.25;92.15;153283.13;10585023;28;20050;-75
2023/08/05 00:07:50;;;;;;;2.83;2.05;;;;;;;18.22;92.25;153274.03;10584658;28;20054;-75
2023/08/05 00:12:52;;;;;;;1.55;1.45;;;;;;;18.26;92.21;153285.72;10584457;28;20039;-75
2023/08/05 00:17:54;;;;;;;2.22;1.80;;;;;;;18.25;91.77;153281.84;10584571;28;20097;-76
2023/08/05 00:22:56;;;;;;;2.65;1.45;;;;;;;18.22;92.16;153275.34;10584581;28;20039;-76
2023/08/05 00:27:58;;;;;;;1.63;1.20;;;;;;;18.18;92.53;153264.94;10584029;28;20062;-76
2023/08/05 00:32:59;;;;;;;2.00;1.77;;;;;;;18.18;93.68;153264.94;10584169;28;20408;-76
2023/08/05 00:38:01;;;;;;;2.95;1.52;;;;;;;18.26;92.30;153284.44;10565811;28;20496;-75
2023/08/05 00:43:03;;;;;;;1.65;1.55;;;;;;;18.30;92.34;153294.81;10565716;28;20028;-75
2023/08/05 00:48:07;;;;;;;2.15;1.45;;;;;;;18.13;93.68;153253.25;10583921;28;20084;-76
2023/08/05 00:53:09;;;;;;;1.15;1.08;;;;;;;18.08;93.75;153240.28;10565864;28;20112;-74
2023/08/05 00:58:12;;;;;;;1.90;1.70;;;;;;;17.90;92.65;153194.84;10583139;28;20047;-73
2023/08/05 01:03:14;;;;;;;1.40;1.30;;;;;;;17.90;92.14;153193.56;10582922;28;20405;-74
2023/08/05 01:08:19;;;;;;;2.38;1.40;;;;;;;17.94;89.71;153202.66;10582120;28;20394;-74
2023/08/05 01:13:20;;;;;;;2.05;1.40;;;;;;;17.94;89.24;153203.94;10582162;28;20406;-74
2023/08/05 01:18:24;;;;;;;2.90;1.30;;;;;;;18.04;88.47;153228.59;10586124;28;20063;-74
2023/08/05 01:23:37;;;;;;;1.80;1.70;;;;;;;18.14;87.61;153254.56;10591206;28;20063;-74
2023/08/05 01:28:39;;;;;;;1.10;1.00;;;;;;;18.00;88.55;153219.50;10571894;28;20062;-74
2023/08/05 01:33:42;;;;;;;1.30;1.20;;;;;;;17.90;90.29;153194.84;10590107;28;20039;-75
2023/08/05 01:38:44;;;;;;;1.38;1.27;;;;;;;17.47;94.09;153084.47;10590025;28;20093;-75
2023/08/05 01:43:46;;;;;;;1.23;1.13;;;;;;;17.32;94.83;153046.88;10572202;28;20093;-74
2023/08/05 01:48:49;;;;;;;1.92;1.50;;;;;;;17.33;95.53;153048.16;10590255;28;20043;-74
2023/08/05 01:53:50;;;;;;;1.20;1.10;;;;;;;17.35;96.20;153054.66;10571041;28;20071;-75
2023/08/05 01:58:52;;;;;;;1.90;1.48;;;;;;;17.25;97.25;153027.41;10589652;28;20084;-75
2023/08/05 02:03:54;;;;;;;1.38;1.27;;;;;;;17.15;98.42;153004.03;10570373;28;20047;-74
2023/08/05 02:08:56;;;;;;;1.55;1.38;;;;;;;17.11;98.96;152992.38;10570297;28;20126;-75
2023/08/05 02:13:58;;;;;;;2.22;1.30;;;;;;;17.15;98.35;153004.03;10588584;28;20099;-73
2023/08/05 02:19:00;;;;;;;1.40;1.27;;;;;;;17.15;99.65;153004.03;10588608;28;20489;-74
2023/08/05 02:24:02;;;;;;;1.58;1.25;;;;;;;17.08;99.25;152984.56;10589035;28;20043;-73
2023/08/05 02:29:03;;;;;;;1.30;1.20;;;;;;;17.03;100.00;152971.59;10589188;28;20447;-74
2023/08/05 02:34:05;;;;;;;1.40;1.30;;;;;;;17.03;99.80;152971.59;10588684;28;20035;-75
2023/08/05 02:39:08;;;;;;;1.55;1.10;;;;;;;17.02;99.64;152970.31;10569971;28;20071;-74
2023/08/05 02:44:10;;;;;;;2.78;1.38;;;;;;;17.03;98.71;152972.91;10587928;28;20047;-74
2023/08/05 02:49:12;;;;;;;1.83;1.48;;;;;;;17.31;96.74;153042.94;10569265;28;20114;-75
2023/08/05 02:54:13;;;;;;;1.88;1.77;;;;;;;17.22;97.95;153020.94;10587104;28;20123;-75
2023/08/05 02:59:15;;;;;;;2.22;1.50;;;;;;;16.97;99.97;152956.06;10587018;28;20447;-75
2023/08/05 03:04:17;;;;;;;2.17;1.50;;;;;;;17.08;99.21;152984.56;10586673;28;20032;-75
2023/08/05 03:09:19;;;;;;;1.80;1.70;;;;;;;17.25;96.95;153028.69;10586394;28;20043;-74
2023/08/05 03:14:20;;;;;;;1.75;1.52;;;;;;;17.30;96.75;153041.66;10585978;28;20126;-74
2023/08/05 03:19:22;;;;;;;1.90;1.63;;;;;;;17.31;95.86;153042.94;10568297;28;20109;-74
2023/08/05 03:24:26;;;;;;;2.50;1.88;;;;;;;17.28;97.14;153035.19;10567084;28;20093;-74
2023/08/05 03:29:28;;;;;;;2.20;1.50;;;;;;;17.03;99.80;152972.91;10567601;28;20044;-74
2023/08/05 03:34:30;;;;;;;1.50;1.40;;;;;;;17.11;99.10;152992.38;10567345;28;20047;-74
2023/08/05 03:39:35;;;;;;;2.97;1.67;;;;;;;17.01;99.52;152967.72;10566878;28;20082;-74
2023/08/05 03:44:36;;;;;;;1.50;1.40;;;;;;;17.11;99.34;152992.38;10567339;28;20575;-73
2023/08/05 03:49:39;;;;;;;2.40;1.40;;;;;;;17.11;98.54;152992.38;10566271;28;20043;-74
2023/08/05 03:54:41;;;;;;;2.38;1.67;;;;;;;17.17;97.49;153006.63;10584286;28;20093;-74
2023/08/05 03:59:43;;;;;;;3.53;1.73;;;;;;;17.18;97.52;153010.56;10565701;28;20051;-74
2023/08/05 04:04:46;;;;;;;1.70;1.60;;;;;;;17.19;97.26;153011.84;10565352;28;20073;-74
2023/08/05 04:09:49;;;;;;;3.30;2.00;;;;;;;17.34;94.88;153052.03;10583517;28;20105;-75
2023/08/05 04:14:52;;;;;;;2.45;1.90;;;;;;;17.31;94.34;153042.94;10565719;28;20427;-75
2023/08/05 04:19:55;;;;;;;3.58;1.95;;;;;;;17.17;94.70;153006.63;10565009;28;20394;-77
2023/08/05 04:24:57;;;;;;;1.90;1.73;;;;;;;17.05;94.42;152976.81;10583038;28;20059;-74
2023/08/05 04:29:59;;;;;;;3.40;2.08;;;;;;;17.07;94.69;152982.00;10564539;28;20043;-74
2023/08/05 04:35:01;;;;;;;2.35;1.83;;;;;;;17.15;93.03;153002.75;10582547;28;20066;-74
2023/08/05 04:40:03;;;;;;;2.22;1.70;;;;;;;17.32;90.72;153045.56;10582468;28;20035;-74
2023/08/05 04:45:05;;;;;;;3.03;1.80;;;;;;;17.54;87.04;153101.38;10582119;28;20081;-74
2023/08/05 04:50:07;;;;;;;2.72;1.70;;;;;;;17.39;88.81;153065.00;10582878;28;20036;-74
2023/08/05 04:55:09;;;;;;;2.38;2.10;;;;;;;17.39;89.76;153063.72;10582062;28;20078;-73
2023/08/05 05:00:11;;;;;;;2.45;1.70;;;;;;;17.53;86.32;153100.09;10583732;28;20062;-74
2023/08/05 05:05:13;;;;;;;2.50;2.00;;;;;;;17.35;87.57;153053.31;10582010;28;20059;-74
2023/08/05 05:10:15;;;;;;;5.97;1.70;;;;;;;17.51;87.62;153093.56;10582246;28;20110;-74
2023/08/05 05:15:18;;;;;;;2.35;1.83;;;;;;;17.57;84.28;153109.13;10583345;28;20064;-73
2023/08/05 05:20:19;;;;;;;2.20;1.90;;;;;;;17.52;86.08;153097.44;10565435;28;20047;-73
2023/08/05 05:25:24;;;;;;;2.03;1.80;;;;;;;17.58;85.03;153113.06;10583949;28;20081;-74
2023/08/05 05:30:25;;;;;;;2.13;1.50;;;;;;;17.70;83.07;153141.56;10565053;28;20420;-74
2023/08/05 05:35:31;;;;;;;2.33;1.95;;;;;;;17.60;83.37;153116.94;10582875;28;20044;-74
2023/08/05 05:40:32;;;;;;;1.65;1.55;;;;;;;17.80;82.25;153167.63;10564128;28;20063;-74
2023/08/05 05:45:35;;;;;;;2.20;1.67;;;;;;;17.73;82.46;153150.66;10582108;28;20046;-74
2023/08/05 05:50:42;;;;;;;2.15;1.95;;;;;;;17.99;80.75;153215.63;10582831;28;20089;-74
2023/08/05 05:55:47;;;;;;;4.63;1.90;;;;;;;18.36;76.18;153310.38;10564156;28;20048;-74
2023/08/05 06:00:54;;;;;;;1.75;1.55;;;;;;;18.14;79.74;153254.56;10563309;28;20043;-74
2023/08/05 06:05:58;;;;;;;1.80;1.40;;;;;;;18.11;78.38;153246.81;10589340;28;20035;-74
2023/08/05 06:11:02;;;;;;;2.25;1.80;;;;;;;18.14;77.83;153255.84;10589845;28;20047;-74
2023/08/05 06:16:05;;;;;;;2.00;1.50;;;;;;;18.32;77.51;153301.28;10589481;28;20067;-74
2023/08/05 06:21:06;;;;;;;2.30;1.92;;;;;;;18.30;79.82;153296.13;10589553;28;20043;-74
2023/08/05 06:26:08;;;;;;;3.47;1.80;;;;;;;18.25;79.33;153283.13;10590074;28;20439;-74
2023/08/05 06:31:10;;;;;;;1.40;1.30;;;;;;;18.31;77.65;153297.41;10590495;28;20039;-74
2023/08/05 06:36:12;;;;;;;2.60;1.60;;;;;;;18.25;78.25;153281.84;10589557;28;20035;-74
2023/08/05 06:41:14;;;;;;;2.00;1.80;;;;;;;18.37;78.95;153314.31;10588978;28;20370;-75
2023/08/05 06:46:16;;;;;;;2.05;1.40;;;;;;;18.53;76.31;153353.25;10588580;28;20036;-75
2023/08/05 06:51:18;;;;;;;3.10;1.70;;;;;;;18.53;77.48;153354.53;10587954;28;20051;-73
2023/08/05 06:56:20;;;;;;;1.58;1.48;;;;;;;18.77;76.69;153414.31;10589890;28;20036;-72
2023/08/05 07:01:21;;;;;;;2.10;1.50;;;;;;;19.02;75.46;153477.97;10589384;28;20048;-72
2023/08/05 07:06:23;;;;;;;3.70;1.45;;;;;;;18.78;74.74;153416.94;10588745;28;20042;-72
2023/08/05 07:11:25;;;;;;;1.23;1.13;;;;;;;18.53;75.36;153354.53;10570458;28;20074;-73
2023/08/05 07:16:27;;;;;;;2.38;1.50;;;;;;;18.55;76.70;153359.75;10569533;28;20048;-71
2023/08/05 07:21:29;;;;;;;2.65;1.48;;;;;;;18.53;76.56;153354.53;10570244;28;20521;-71
2023/08/05 07:26:31;;;;;;;1.60;1.20;;;;;;;18.79;74.25;153420.81;10587107;28;20123;-71
2023/08/05 07:31:33;;;;;;;1.55;1.10;;;;;;;18.79;71.43;153420.81;10587223;28;20048;-71
2023/08/05 07:36:35;;;;;;;1.88;1.05;;;;;;;18.68;71.55;153392.19;10587631;28;20047;-72
2023/08/05 07:41:37;;;;;;;1.42;1.00;;;;;;;18.80;70.89;153423.41;10588853;28;20043;-72
2023/08/05 07:46:40;;;;;;;1.20;1.10;;;;;;;18.95;71.40;153459.78;10587219;28;20386;-71
2023/08/05 07:51:46;;;;;;;1.75;1.13;;;;;;;19.23;71.33;153532.53;10587398;28;20126;-73
2023/08/05 07:56:48;;;;;;;0.80;0.80;;;;;;;19.04;72.14;153484.50;10586691;28;20451;-73
2023/08/05 08:01:53;;;;;;;1.83;1.25;;;;;;;19.11;72.26;153502.63;10587130;28;20051;-71
2023/08/05 08:06:55;;;;;;;4.05;1.25;;;;;;;19.25;70.15;153536.41;10567544;28;20148;-72
2023/08/05 08:11:57;;;;;;;1.88;1.23;;;;;;;19.41;69.33;153579.31;10586596;28;20074;-72
2023/08/05 08:16:59;;;;;;;1.83;1.20;;;;;;;19.54;69.37;153610.50;10568536;28;20042;-71
2023/08/05 08:22:01;;;;;;;1.95;1.00;;;;;;;19.62;67.97;153632.66;10584782;28;20075;-71
2023/08/05 08:27:03;;;;;;;0.85;0.80;;;;;;;19.49;69.16;153598.81;10584578;28;20404;-72
2023/08/05 08:32:05;;;;;;;1.55;1.20;;;;;;;19.34;69.16;153561.09;10585650;28;20073;-72
2023/08/05 08:37:06;;;;;;;2.72;1.25;;;;;;;19.42;70.13;153581.91;10584179;28;20043;-72
2023/08/05 08:42:08;;;;;;;2.30;1.00;;;;;;;19.61;69.13;153630.06;10566478;28;20387;-71
2023/08/05 08:47:11;;;;;;;1.65;1.10;;;;;;;19.98;69.79;153723.63;10605322;27;20457;-71
2023/08/05 08:52:20;;;;;;;2.17;1.35;;;;;;;19.87;68.01;153695.00;10587620;27;20035;-71
2023/08/05 08:57:37;;;;;;;2.38;1.40;;;;;;;20.07;68.02;153747.00;10584784;28;20039;-72
2023/08/05 09:02:45;;;;;;;1.50;1.00;;;;;;;20.35;66.35;153817.19;10579321;27;20574;-71
2023/08/05 09:07:49;;;;;;;1.10;1.00;;;;;;;20.26;66.54;153793.81;10558258;28;20066;-71
2023/08/05 09:12:51;;;;;;;3.08;1.15;;;;;;;20.22;66.07;153784.69;10541326;28;20068;-72
2023/08/05 09:17:56;;;;;;;1.10;1.00;;;;;;;20.19;66.70;153776.94;10554113;28;20031;-72
2023/08/05 09:23:03;;;;;;;1.75;0.90;;;;;;;20.04;67.07;153737.91;10627132;28;20031;-72
2023/08/05 09:28:06;;;;;;;2.10;1.10;;;;;;;20.21;67.16;153782.09;10595011;28;20040;-71
2023/08/05 09:33:08;;;;;;;1.05;0.98;;;;;;;20.26;65.44;153795.09;10567431;28;20051;-72
2023/08/05 09:38:10;;;;;;;1.13;0.80;;;;;;;20.37;65.97;153823.72;10587876;28;20044;-71
2023/08/05 09:43:14;;;;;;;1.00;0.90;;;;;;;20.37;65.50;153823.72;10594173;28;20100;-72
2023/08/05 09:48:17;;;;;;;1.30;0.95;;;;;;;20.14;66.26;153765.22;10593244;28;20543;-72
2023/08/05 09:53:22;;;;;;;1.20;0.88;;;;;;;20.47;65.28;153848.41;10593515;28;20043;-72
2023/08/05 09:58:24;;;;;;;1.50;1.05;;;;;;;20.39;65.74;153827.59;10592329;28;20046;-71
2023/08/05 10:03:28;;;;;;;0.95;0.75;;;;;;;20.41;67.77;153832.84;10593927;27;20123;-72
2023/08/05 10:08:32;;;;;;;1.70;1.02;;;;;;;20.52;65.97;153860.16;10589803;28;20046;-72
2023/08/05 10:13:41;;;;;;;1.45;1.10;;;;;;;20.39;66.57;153827.59;10590030;28;20404;-73
2023/08/05 10:18:44;;;;;;;1.75;1.00;;;;;;;20.63;65.56;153888.78;10590349;28;20040;-72
2023/08/05 10:24:00;;;;;;;1.05;0.93;;;;;;;20.72;65.15;153912.19;10590059;28;20071;-72
2023/08/05 10:29:29;;;;;;;2.03;1.10;;;;;;;20.74;64.90;153916.09;10593532;28;20039;-73
2023/08/05 10:34:30;;;;;;;1.20;0.90;;;;;;;20.83;64.21;153940.78;10589995;28;20048;-71
2023/08/05 10:39:44;;;;;;;1.80;0.90;;;;;;;20.88;64.23;153952.50;10589362;28;20488;-71
2023/08/05 10:44:50;;;;;;;0.88;0.88;;;;;;;21.01;63.02;153985.00;10589092;28;20040;-71
2023/08/05 10:49:56;;;;;;;1.00;0.70;;;;;;;20.77;63.46;153925.19;10588333;28;20048;-73
2023/08/05 10:55:10;;;;;;;1.67;1.02;;;;;;;20.89;64.05;153955.06;10605050;27;20043;-72
2023/08/05 11:00:19;;;;;;;2.88;1.20;;;;;;;21.31;62.11;154061.78;10615216;27;20047;-72
2023/08/05 11:05:23;;;;;;;1.08;0.93;;;;;;;21.08;62.71;154004.53;10590278;28;20122;-71
2023/08/05 11:10:29;;;;;;;2.67;0.80;;;;;;;21.28;60.06;154055.25;10590339;28;20123;-73
2023/08/05 11:15:31;;;;;;;;;;;;;;;21.21;61.66;154035.75;10595096;28;20043;-71
2023/08/05 11:20:34;;;;;;;1.88;0.82;;;;;;;21.13;60.61;154017.53;10591683;28;19919;-72
2023/08/05 11:25:36;;;;;;;1.25;0.80;;;;;;;21.35;60.60;154072.22;10572166;28;20067;-72
2023/08/05 11:30:39;;;;;;;0.77;0.70;;;;;;;21.20;60.63;154034.41;10589842;28;20047;-73
2023/08/05 11:35:46;;;;;;;1.85;0.88;;;;;;;21.27;60.83;154052.66;10589639;28;20050;-71
2023/08/05 11:40:53;;;;;;;1.85;0.75;;;;;;;21.27;60.58;154051.34;10589711;28;20050;-72
2023/08/05 11:45:58;;;;;;;1.38;0.70;;;;;;;21.30;59.69;154059.19;10588354;28;20126;-71
2023/08/05 11:51:02;;;;;;;0.90;0.60;;;;;;;21.27;59.98;154051.34;10587449;28;20095;-72
2023/08/05 11:56:06;;;;;;;1.98;0.60;;;;;;;21.42;60.72;154091.72;10610278;27;20390;-71
2023/08/05 12:01:08;;;;;;;1.42;0.70;;;;;;;21.78;58.89;154182.84;10573987;28;20516;-72
2023/08/05 12:06:12;;;;;;;0.95;0.70;;;;;;;21.70;58.65;154160.72;10587052;28;20154;-71
2023/08/05 12:11:14;;;;;;;1.63;0.60;;;;;;;21.57;60.55;154129.47;10585784;28;20452;-72
2023/08/05 12:16:19;;;;;;;0.88;0.68;;;;;;;21.20;60.75;154033.13;10589629;27;20044;-72
2023/08/05 12:21:21;;;;;;;1.23;0.88;;;;;;;20.93;63.68;153965.50;10604534;27;20382;-72
2023/08/05 12:26:27;;;;;;;1.40;0.70;;;;;;;21.06;61.13;153999.31;10593038;27;20038;-71
2023/08/05 12:31:31;;;;;;;1.47;0.80;;;;;;;20.96;63.48;153973.31;10588662;27;20040;-71
2023/08/05 12:36:33;;;;;;;1.23;0.80;;;;;;;21.04;62.81;153992.84;10628937;27;20043;-71
2023/08/05 12:41:35;;;;;;;2.72;1.00;;;;;;;21.09;63.14;154005.84;10620563;27;20042;-71
2023/08/05 12:46:37;;;;;;;2.08;0.90;;;;;;;20.98;64.19;153978.47;10586863;28;20415;-71
2023/08/05 12:51:39;;;;;;;1.30;0.93;;;;;;;20.85;64.38;153944.66;10613002;27;20039;-75
2023/08/05 12:56:42;;;;;;;1.10;1.08;;;;;;;20.72;64.51;153912.19;10610015;27;20077;-75
2023/08/05 13:01:45;;;;;;;1.63;0.90;;;;;;;20.81;64.76;153934.31;10628119;27;20130;-74
2023/08/05 13:06:47;;;;;;;1.55;0.90;;;;;;;20.82;65.72;153938.19;10609802;27;20035;-75
2023/08/05 13:11:49;;;;;;;0.77;0.63;;;;;;;20.69;65.80;153904.38;10628849;27;20118;-75
2023/08/05 13:16:52;;;;;;;1.00;0.73;;;;;;;20.87;63.84;153951.19;10628939;28;20084;-75
2023/08/05 13:21:54;;;;;;;1.88;1.08;;;;;;;20.42;65.48;153836.72;10629779;28;20047;-76
2023/08/05 13:26:56;;;;;;;2.60;0.98;;;;;;;20.54;65.35;153866.69;10609807;28;20114;-75
2023/08/05 13:31:58;;;;;;;2.05;0.70;;;;;;;20.57;65.08;153874.47;10626667;28;20094;-76
2023/08/05 13:37:00;;;;;;;1.23;0.82;;;;;;;20.54;63.84;153865.34;10625126;28;20084;-76
2023/08/05 13:42:02;;;;;;;1.75;0.80;;;;;;;20.49;65.72;153853.66;10627647;28;20067;-74
2023/08/05 13:47:04;;;;;;;1.13;0.90;;;;;;;20.33;65.79;153812.03;10625719;28;20035;-75
2023/08/05 13:52:06;;;;;;;1.10;1.00;;;;;;;20.24;65.42;153789.91;10627109;28;20381;-74
2023/08/05 13:57:08;;;;;;;2.85;1.00;;;;;;;20.11;66.87;153757.41;10625662;28;20439;-75
2023/08/05 14:02:10;;;;;;;1.73;0.93;;;;;;;20.10;68.17;153753.53;10625185;28;20151;-75
2023/08/05 14:07:11;;;;;;;1.15;1.02;;;;;;;20.02;66.72;153732.72;10624618;28;20061;-75
2023/08/05 14:12:13;;;;;;;4.03;1.00;;;;;;;19.90;67.33;153704.09;10606991;28;20064;-75
2023/08/05 14:17:15;;;;;;;1.70;0.95;;;;;;;20.06;67.81;153743.13;10591748;28;20378;-75
2023/08/05 14:22:17;;;;;;;1.10;0.80;;;;;;;19.94;67.77;153713.22;10581411;28;20040;-75
2023/08/05 14:27:19;;;;;;;1.00;0.90;;;;;;;19.88;67.84;153698.94;10589350;28;20070;-75
2023/08/05 14:32:21;;;;;;;1.50;0.88;;;;;;;20.10;67.41;153754.81;10589930;28;20079;-75
2023/08/05 14:37:23;;;;;;;2.17;1.15;;;;;;;20.13;67.33;153762.59;10589491;28;20139;-75
2023/08/05 14:42:24;;;;;;;1.40;1.02;;;;;;;20.20;66.74;153779.53;10571845;28;20405;-75
2023/08/05 14:47:26;;;;;;;1.23;0.80;;;;;;;20.05;66.81;153741.78;10589359;28;20039;-75
2023/08/05 14:52:28;;;;;;;1.08;0.73;;;;;;;19.93;67.78;153709.34;10590007;28;20126;-74
2023/08/05 14:57:30;;;;;;;1.88;0.80;;;;;;;20.08;67.35;153749.59;10590155;28;20501;-74
2023/08/05 15:02:32;;;;;;;1.15;1.05;;;;;;;20.07;68.25;153747.00;10588710;28;20032;-74
2023/08/05 15:07:34;;;;;;;2.00;1.02;;;;;;;19.84;67.80;153687.22;10589384;28;20040;-75
2023/08/05 15:12:36;;;;;;;1.20;0.90;;;;;;;19.96;67.71;153718.41;10589900;28;20122;-74
2023/08/05 15:17:41;;;;;;;1.25;0.90;;;;;;;20.01;68.01;153731.44;10569866;28;20401;-75
2023/08/05 15:22:43;;;;;;;1.40;0.90;;;;;;;20.17;67.44;153771.69;10586983;28;20515;-75
2023/08/05 15:27:45;;;;;;;1.27;0.95;;;;;;;20.03;68.69;153736.59;10587382;28;20114;-75
2023/08/05 15:32:47;;;;;;;1.30;1.00;;;;;;;20.11;69.68;153757.41;10587253;28;20048;-75
2023/08/05 15:37:50;;;;;;;1.30;1.05;;;;;;;20.25;69.01;153791.22;10586150;28;20056;-75
2023/08/05 15:42:51;;;;;;;1.48;1.13;;;;;;;20.14;68.13;153763.88;10586690;28;20105;-75
2023/08/05 15:47:54;;;;;;;1.42;1.10;;;;;;;19.89;68.63;153701.53;10586495;28;20400;-75
2023/08/05 15:52:56;;;;;;;1.23;1.13;;;;;;;20.06;69.71;153743.13;10586440;28;20118;-75
2023/08/05 15:57:58;;;;;;;2.05;1.23;;;;;;;20.32;69.19;153809.38;10586336;28;20434;-75
2023/08/05 16:02:59;;;;;;;1.40;1.02;;;;;;;20.00;69.71;153727.50;10586350;28;20066;-75
2023/08/05 16:08:01;;;;;;;1.65;1.20;;;;;;;20.03;69.92;153735.31;10584875;28;20039;-75
2023/08/05 16:13:03;;;;;;;1.40;1.30;;;;;;;19.91;71.11;153705.41;10584910;28;20074;-75
2023/08/05 16:18:05;;;;;;;1.30;1.10;;;;;;;19.82;70.54;153683.31;10585417;28;20035;-75
2023/08/05 16:23:09;;;;;;;1.77;1.10;;;;;;;19.67;71.83;153644.34;10586067;28;20357;-75
2023/08/05 16:28:12;;;;;;;3.30;1.98;;;;;;;19.70;73.57;153650.81;10586417;28;20409;-75
2023/08/05 16:33:14;;;;;;;5.22;1.88;;;;;;;19.79;74.10;153674.19;10584006;28;20044;-75
2023/08/05 16:38:15;;;;;;;2.30;1.58;;;;;;;19.82;76.07;153682.00;10584429;28;20044;-75
2023/08/05 16:43:17;;;;;;;2.65;1.70;;;;;;;19.66;77.85;153641.75;10585896;28;20413;-75
2023/08/05 16:48:20;;;;;;;2.50;1.88;;;;;;;19.50;80.91;153600.09;10585163;28;20035;-75
2023/08/05 16:53:22;;;;;;;2.20;1.95;;;;;;;19.57;81.29;153618.31;10585574;28;20043;-75
2023/08/05 16:58:23;;;;;;;2.17;1.98;;;;;;;19.54;81.01;153611.78;10582843;28;20031;-76
2023/08/05 17:03:25;;;;;;;1.77;1.67;;;;;;;19.49;79.86;153598.81;10582866;28;20047;-75
2023/08/05 17:08:27;;;;;;;3.15;1.88;;;;;;;19.38;81.82;153570.19;10583000;28;20117;-75
2023/08/05 17:13:29;;;;;;;2.25;1.90;;;;;;;19.17;81.23;153516.97;10564777;28;20039;-74
2023/08/05 17:18:31;;;;;;;2.75;1.80;;;;;;;19.10;83.27;153498.75;10582864;28;20489;-73
2023/08/05 17:23:33;;;;;;;3.30;2.33;;;;;;;19.00;85.09;153472.78;10583500;28;20039;-74
2023/08/05 17:28:35;;;;;;;6.07;2.10;;;;;;;19.11;84.92;153501.34;10582724;28;20093;-74
2023/08/05 17:33:37;;;;;;;2.40;2.20;;;;;;;19.01;86.10;153476.69;10583768;28;20092;-74
2023/08/05 17:38:38;;;;;;;2.67;1.95;;;;;;;19.02;86.78;153477.97;10583103;28;20040;-74
2023/08/05 17:43:40;;;;;;;2.15;1.95;;;;;;;18.94;88.71;153457.19;10582119;28;20048;-74
2023/08/05 17:48:42;;;;;;;2.30;2.10;;;;;;;18.88;89.75;153442.91;10582601;28;20040;-73
2023/08/05 17:53:44;;;;;;;1.83;1.73;;;;;;;18.85;90.77;153435.09;10565598;28;20089;-74
2023/08/05 17:58:47;;;;;;;2.60;2.40;;;;;;;18.87;92.40;153441.63;10584823;28;20051;-73
2023/08/05 18:03:48;;;;;;;2.80;2.60;;;;;;;18.77;93.65;153414.31;10592840;28;20036;-73
2023/08/05 18:08:50;;;;;;;4.45;3.55;;;;;;;18.70;94.55;153396.16;10591562;28;20512;-73
2023/08/05 18:13:53;;;;;;;4.05;3.55;;;;;;;18.57;96.73;153364.94;10592609;28;20497;-72
2023/08/05 18:18:54;;;;;;;4.60;4.20;;;;;;;18.61;95.78;153375.31;10591194;28;20031;-70
2023/08/05 18:23:57;;;;;;;3.85;2.90;;;;;;;18.61;95.88;153375.31;10591880;28;20092;-71
2023/08/05 18:28:59;;;;;;;2.47;2.17;;;;;;;18.56;95.46;153361.03;10592665;28;20110;-70
2023/08/05 18:34:02;;;;;;;2.28;1.65;;;;;;;18.45;95.58;153333.75;10590239;28;20141;-71
2023/08/05 18:39:04;;;;;;;2.30;2.10;;;;;;;18.19;100.00;153267.53;10591744;28;20039;-71
2023/08/05 18:44:07;;;;;;;2.30;1.83;;;;;;;18.15;100.00;153257.19;10595690;28;20071;-70
2023/08/05 18:49:09;;;;;;;2.08;1.88;;;;;;;18.09;100.00;153241.56;10603063;28;20079;-70
2023/08/05 18:54:12;;;;;;;2.63;2.40;;;;;;;17.95;100.00;153205.25;10601008;28;20469;-73
2023/08/05 18:59:13;;;;;;;2.47;2.28;;;;;;;17.90;100.00;153193.56;10601642;28;20039;-73
2023/08/05 19:04:15;;;;;;;3.03;2.10;;;;;;;17.88;100.00;153189.69;10598427;28;20043;-74
2023/08/05 19:09:20;;;;;;;3.28;2.83;;;;;;;17.69;100.00;153140.28;10600449;28;20095;-73
2023/08/05 19:14:22;;;;;;;2.90;2.70;;;;;;;17.47;100.00;153084.47;10600273;28;20122;-73
2023/08/05 19:19:25;;;;;;;3.25;3.05;;;;;;;17.56;100.00;153106.53;10597534;28;20092;-73
2023/08/05 19:24:27;;;;;;;3.25;3.05;;;;;;;17.42;100.00;153070.22;10597427;28;20066;-73
2023/08/05 19:29:30;;;;;;;4.25;3.88;;;;;;;17.74;100.00;153152.00;10594460;28;20118;-75
2023/08/05 19:34:32;;;;;;;3.70;3.30;;;;;;;17.44;100.00;153076.69;10594717;28;20065;-74
2023/08/05 19:39:35;;;;;;;4.15;3.85;;;;;;;17.44;100.00;153076.69;10597124;28;20062;-75
2023/08/05 19:44:37;;;;;;;4.10;3.80;;;;;;;17.32;100.00;153045.56;10576713;28;20055;-74
2023/08/05 19:49:40;;;;;;;3.25;3.00;;;;;;;17.26;100.00;153031.28;10595807;28;20050;-73
2023/08/05 19:54:43;;;;;;;4.35;4.03;;;;;;;17.06;100.00;152980.69;10595510;28;20454;-74
2023/08/05 19:59:45;;;;;;;4.10;3.80;;;;;;;17.10;100.00;152991.06;10595471;28;20093;-74
2023/08/05 20:04:47;;;;;;;5.13;4.82;;;;;;;17.27;100.00;153033.91;10594376;28;20055;-73
2023/08/05 20:09:49;;;;;;;4.30;4.00;;;;;;;17.38;100.00;153062.41;10594635;28;20417;-73
2023/08/05 20:14:51;;;;;;;5.38;4.93;;;;;;;17.20;100.00;153014.44;10596257;28;20088;-76
2023/08/05 20:19:54;;;;;;;6.00;5.50;;;;;;;17.20;100.00;153015.72;10595890;28;20047;-73
2023/08/05 20:24:57;;;;;;;5.75;5.30;;;;;;;17.07;100.00;152983.28;10592925;28;20429;-74
2023/08/05 20:30:01;;;;;;;6.75;6.15;;;;;;;16.94;100.00;152948.25;10593361;28;20032;-74
2023/08/05 20:35:05;;;;;;;5.20;4.80;;;;;;;16.85;100.00;152927.50;10591774;28;20039;-74
2023/08/05 20:40:08;;;;;;;4.80;4.40;;;;;;;16.85;100.00;152927.50;10590848;28;20043;-73
2023/08/05 20:45:13;;;;;;;4.68;4.28;;;;;;;16.89;100.00;152936.59;10593912;28;20048;-74
2023/08/05 20:50:15;;;;;;;6.25;5.75;;;;;;;16.74;100.00;152897.69;10590443;28;20036;-74
2023/08/05 20:55:18;;;;;;;5.50;5.10;;;;;;;16.84;100.00;152924.91;10594182;28;20070;-74
2023/08/05 21:00:19;;;;;;;5.80;5.40;;;;;;;16.86;100.00;152930.09;10589820;28;20044;-74
2023/08/05 21:05:22;;;;;;;5.28;4.88;;;;;;;16.74;100.00;152897.69;10587587;28;20405;-73
2023/08/05 21:10:24;;;;;;;5.57;5.07;;;;;;;16.67;100.00;152879.47;10586516;28;20458;-74
2023/08/05 21:15:26;;;;;;;5.43;5.03;;;;;;;16.52;100.00;152843.19;10585887;28;20040;-74
2023/08/05 21:20:28;;;;;;;5.88;5.47;;;;;;;16.65;100.00;152876.91;10567388;28;20130;-74
2023/08/05 21:25:30;;;;;;;5.32;4.93;;;;;;;16.59;100.00;152861.31;10588842;28;20055;-75
2023/08/05 21:30:32;;;;;;;5.80;5.30;;;;;;;16.59;100.00;152861.31;10591366;28;20078;-75
2023/08/05 21:35:34;;;;;;;6.57;6.07;;;;;;;16.52;100.00;152841.88;10592739;28;20565;-74
2023/08/05 21:40:36;;;;;;;6.28;5.88;;;;;;;16.50;100.00;152837.97;10597516;28;20044;-73
2023/08/05 21:46:03;;;;;;;6.40;5.93;;;;;;;16.46;100.00;152826.28;10578851;28;20424;-73
2023/08/05 21:51:05;;;;;;;5.20;4.80;;;;;;;16.56;100.00;152853.56;10593792;28;20126;-73
2023/08/05 21:56:07;;;;;;;5.60;5.28;;;;;;;16.61;100.00;152865.22;10591413;28;20397;-74
2023/08/05 22:01:09;;;;;;;5.53;5.13;;;;;;;16.59;100.00;152860.00;10590408;28;20096;-73
2023/08/05 22:06:12;;;;;;;8.85;8.25;;;;;;;16.49;100.00;152834.09;10589839;28;20043;-73
2023/08/05 22:11:14;;;;;;;8.45;7.85;;;;;;;16.53;100.00;152844.47;10590607;28;20123;-73
2023/08/05 22:16:15;;;;;;;6.63;6.13;;;;;;;16.54;100.00;152848.34;10589637;28;20067;-72
2023/08/05 22:21:17;;;;;;;6.72;6.28;;;;;;;16.51;100.00;152839.25;10589973;28;20122;-73
2023/08/05 22:26:19;;;;;;;6.20;5.75;;;;;;;16.50;100.00;152836.66;10588459;28;20035;-73
2023/08/05 22:31:21;;;;;;;5.13;4.72;;;;;;;16.42;100.00;152817.22;10590047;28;20135;-74
2023/08/05 22:36:23;;;;;;;4.60;4.28;;;;;;;16.48;100.00;152831.50;10590086;28;20089;-73
2023/08/05 22:41:24;;;;;;;5.25;4.90;;;;;;;16.51;100.00;152840.59;10588413;28;20039;-73
2023/08/05 22:46:26;;;;;;;5.13;4.72;;;;;;;16.40;100.00;152813.34;10587698;28;20123;-73
2023/08/05 22:51:28;;;;;;;5.20;4.80;;;;;;;16.38;100.00;152808.16;10587834;28;20409;-73
2023/08/05 22:56:30;;;;;;;5.10;4.80;;;;;;;16.46;100.00;152827.59;10588518;28;20777;-73
2023/08/05 23:01:32;;;;;;;4.80;4.50;;;;;;;16.39;100.00;152809.47;10587525;28;20050;-73
2023/08/05 23:06:34;;;;;;;5.70;5.30;;;;;;;16.31;100.00;152790.00;10587341;28;20040;-73
2023/08/05 23:11:35;;;;;;;4.85;4.55;;;;;;;16.33;100.00;152793.88;10587518;28;20501;-73